sensor_id;sensor_type;location;lat;lon;timestamp;P1;durP1;ratioP1;P2;durP2;ratioP2
31584;SDS011;18191;51.288;12.390;2024-01-25T00:03:05;13.90;;;2.33;;
31584;SDS011;18191;51.288;12.390;2024-01-25T00:07:56;23.70;;;2.37;;
31584;SDS011;18191;51.288;12.390;2024-01-25T00:12:46;37.60;;;2.80;;
31584;SDS011;18191;51.288;12.390;2024-01-25T00:17:36;32.50;;;2.38;;
31584;SDS011;18191;51.288;12.390;2024-01-25T00:22:27;22.77;;;3.47;;
31584;SDS011;18191;51.288;12.390;2024-01-25T00:27:17;21.90;;;2.25;;
31584;SDS011;18191;51.288;12.390;2024-01-25T00:32:07;25.90;;;3.40;;
31584;SDS011;18191;51.288;12.390;2024-01-25T00:36:58;28.53;;;3.10;;
31584;SDS011;18191;51.288;12.390;2024-01-25T00:41:50;22.33;;;2.00;;
31584;SDS011;18191;51.288;12.390;2024-01-25T00:46:41;20.95;;;2.65;;
31584;SDS011;18191;51.288;12.390;2024-01-25T00:51:31;19.20;;;2.93;;
31584;SDS011;18191;51.288;12.390;2024-01-25T00:56:22;13.03;;;2.27;;
31584;SDS011;18191;51.288;12.390;2024-01-25T01:01:12;14.57;;;2.87;;
31584;SDS011;18191;51.288;12.390;2024-01-25T01:06:03;38.40;;;3.40;;
31584;SDS011;18191;51.288;12.390;2024-01-25T01:10:54;20.92;;;2.60;;
31584;SDS011;18191;51.288;12.390;2024-01-25T01:15:44;28.40;;;4.47;;
31584;SDS011;18191;51.288;12.390;2024-01-25T01:20:34;28.63;;;2.97;;
31584;SDS011;18191;51.288;12.390;2024-01-25T01:25:24;25.70;;;3.28;;
31584;SDS011;18191;51.288;12.390;2024-01-25T01:30:15;18.45;;;2.72;;
31584;SDS011;18191;51.288;12.390;2024-01-25T01:35:05;18.55;;;2.45;;
31584;SDS011;18191;51.288;12.390;2024-01-25T01:39:56;23.58;;;2.95;;
31584;SDS011;18191;51.288;12.390;2024-01-25T01:44:46;22.23;;;2.70;;
31584;SDS011;18191;51.288;12.390;2024-01-25T01:49:36;21.32;;;3.50;;
31584;SDS011;18191;51.288;12.390;2024-01-25T01:54:26;24.23;;;3.60;;
31584;SDS011;18191;51.288;12.390;2024-01-25T01:59:17;16.37;;;2.03;;
31584;SDS011;18191;51.288;12.390;2024-01-25T02:04:07;24.00;;;3.43;;
31584;SDS011;18191;51.288;12.390;2024-01-25T02:08:58;24.63;;;2.40;;
31584;SDS011;18191;51.288;12.390;2024-01-25T02:13:48;20.57;;;3.53;;
31584;SDS011;18191;51.288;12.390;2024-01-25T02:18:39;33.00;;;3.83;;
31584;SDS011;18191;51.288;12.390;2024-01-25T02:23:29;27.23;;;2.93;;
31584;SDS011;18191;51.288;12.390;2024-01-25T02:28:19;12.82;;;2.28;;
31584;SDS011;18191;51.288;12.390;2024-01-25T02:33:10;16.70;;;2.30;;
31584;SDS011;18191;51.288;12.390;2024-01-25T02:38:00;26.93;;;3.37;;
31584;SDS011;18191;51.288;12.390;2024-01-25T02:42:50;44.28;;;5.10;;
31584;SDS011;18191;51.288;12.390;2024-01-25T02:47:41;26.50;;;3.97;;
31584;SDS011;18191;51.288;12.390;2024-01-25T02:52:31;38.20;;;4.20;;
31584;SDS011;18191;51.288;12.390;2024-01-25T02:57:21;23.90;;;3.80;;
31584;SDS011;18191;51.288;12.390;2024-01-25T03:02:12;15.93;;;2.05;;
31584;SDS011;18191;51.288;12.390;2024-01-25T03:07:03;21.93;;;2.53;;
31584;SDS011;18191;51.288;12.390;2024-01-25T03:11:53;17.93;;;2.97;;
31584;SDS011;18191;51.288;12.390;2024-01-25T03:16:43;25.90;;;3.48;;
31584;SDS011;18191;51.288;12.390;2024-01-25T03:21:34;31.33;;;2.80;;
31584;SDS011;18191;51.288;12.390;2024-01-25T03:26:26;19.77;;;3.50;;
31584;SDS011;18191;51.288;12.390;2024-01-25T03:31:17;24.52;;;3.35;;
31584;SDS011;18191;51.288;12.390;2024-01-25T03:36:07;29.00;;;4.85;;
31584;SDS011;18191;51.288;12.390;2024-01-25T03:40:57;27.90;;;3.50;;
31584;SDS011;18191;51.288;12.390;2024-01-25T03:45:49;31.15;;;3.20;;
31584;SDS011;18191;51.288;12.390;2024-01-25T03:50:39;32.15;;;3.10;;
31584;SDS011;18191;51.288;12.390;2024-01-25T03:55:30;20.90;;;3.28;;
31584;SDS011;18191;51.288;12.390;2024-01-25T04:00:20;34.22;;;2.58;;
31584;SDS011;18191;51.288;12.390;2024-01-25T04:05:10;34.63;;;4.35;;
31584;SDS011;18191;51.288;12.390;2024-01-25T04:10:00;24.23;;;2.80;;
31584;SDS011;18191;51.288;12.390;2024-01-25T04:14:51;39.73;;;3.53;;
31584;SDS011;18191;51.288;12.390;2024-01-25T04:19:41;25.52;;;3.90;;
31584;SDS011;18191;51.288;12.390;2024-01-25T04:24:31;34.03;;;2.95;;
31584;SDS011;18191;51.288;12.390;2024-01-25T04:29:22;27.47;;;3.13;;
31584;SDS011;18191;51.288;12.390;2024-01-25T04:34:12;35.47;;;3.03;;
31584;SDS011;18191;51.288;12.390;2024-01-25T04:39:03;23.20;;;2.53;;
31584;SDS011;18191;51.288;12.390;2024-01-25T04:43:53;35.00;;;2.63;;
31584;SDS011;18191;51.288;12.390;2024-01-25T04:48:43;21.92;;;2.63;;
31584;SDS011;18191;51.288;12.390;2024-01-25T04:53:33;24.04;;;3.18;;
31584;SDS011;18191;51.288;12.390;2024-01-25T04:58:24;36.87;;;3.40;;
31584;SDS011;18191;51.288;12.390;2024-01-25T05:03:15;35.03;;;3.00;;
31584;SDS011;18191;51.288;12.390;2024-01-25T05:08:05;24.55;;;3.53;;
31584;SDS011;18191;51.288;12.390;2024-01-25T05:12:56;34.63;;;3.63;;
31584;SDS011;18191;51.288;12.390;2024-01-25T05:17:46;26.58;;;2.72;;
31584;SDS011;18191;51.288;12.390;2024-01-25T05:22:36;12.43;;;2.17;;
31584;SDS011;18191;51.288;12.390;2024-01-25T05:27:30;17.45;;;2.78;;
31584;SDS011;18191;51.288;12.390;2024-01-25T05:32:20;12.50;;;2.13;;
31584;SDS011;18191;51.288;12.390;2024-01-25T05:37:11;34.88;;;3.35;;
31584;SDS011;18191;51.288;12.390;2024-01-25T05:42:04;23.77;;;3.72;;
31584;SDS011;18191;51.288;12.390;2024-01-25T05:46:54;38.35;;;3.72;;
31584;SDS011;18191;51.288;12.390;2024-01-25T05:51:44;22.50;;;2.47;;
31584;SDS011;18191;51.288;12.390;2024-01-25T05:56:35;28.65;;;2.92;;
31584;SDS011;18191;51.288;12.390;2024-01-25T06:01:25;17.73;;;1.98;;
31584;SDS011;18191;51.288;12.390;2024-01-25T06:06:15;19.43;;;3.13;;
31584;SDS011;18191;51.288;12.390;2024-01-25T06:11:06;17.33;;;3.50;;
31584;SDS011;18191;51.288;12.390;2024-01-25T06:15:56;17.23;;;3.63;;
31584;SDS011;18191;51.288;12.390;2024-01-25T06:20:46;25.85;;;4.30;;
31584;SDS011;18191;51.288;12.390;2024-01-25T06:25:36;29.90;;;3.05;;
31584;SDS011;18191;51.288;12.390;2024-01-25T06:30:27;22.00;;;3.23;;
31584;SDS011;18191;51.288;12.390;2024-01-25T06:35:17;20.30;;;2.90;;
31584;SDS011;18191;51.288;12.390;2024-01-25T06:40:08;31.30;;;3.07;;
31584;SDS011;18191;51.288;12.390;2024-01-25T06:44:58;30.10;;;2.67;;
31584;SDS011;18191;51.288;12.390;2024-01-25T06:49:48;22.00;;;2.58;;
31584;SDS011;18191;51.288;12.390;2024-01-25T06:54:41;30.48;;;3.75;;
31584;SDS011;18191;51.288;12.390;2024-01-25T06:59:31;14.82;;;2.25;;
31584;SDS011;18191;51.288;12.390;2024-01-25T07:04:22;25.30;;;1.92;;
31584;SDS011;18191;51.288;12.390;2024-01-25T07:09:12;13.80;;;2.00;;
31584;SDS011;18191;51.288;12.390;2024-01-25T07:14:02;22.93;;;2.27;;
31584;SDS011;18191;51.288;12.390;2024-01-25T07:18:52;21.00;;;3.73;;
31584;SDS011;18191;51.288;12.390;2024-01-25T07:23:43;8.70;;;2.33;;
31584;SDS011;18191;51.288;12.390;2024-01-25T07:28:33;34.00;;;3.75;;
31584;SDS011;18191;51.288;12.390;2024-01-25T07:33:23;20.42;;;2.47;;
31584;SDS011;18191;51.288;12.390;2024-01-25T07:43:05;19.13;;;2.77;;
31584;SDS011;18191;51.288;12.390;2024-01-25T07:47:56;28.97;;;3.13;;
31584;SDS011;18191;51.288;12.390;2024-01-25T07:52:46;37.27;;;4.10;;
31584;SDS011;18191;51.288;12.390;2024-01-25T07:57:36;24.97;;;2.47;;
31584;SDS011;18191;51.288;12.390;2024-01-25T08:02:27;23.95;;;2.92;;
31584;SDS011;18191;51.288;12.390;2024-01-25T08:07:17;19.67;;;2.53;;
31584;SDS011;18191;51.288;12.390;2024-01-25T08:12:07;24.55;;;3.08;;
31584;SDS011;18191;51.288;12.390;2024-01-25T08:16:57;11.20;;;3.50;;
31584;SDS011;18191;51.288;12.390;2024-01-25T08:21:48;27.63;;;4.20;;
31584;SDS011;18191;51.288;12.390;2024-01-25T08:26:39;17.92;;;2.60;;
31584;SDS011;18191;51.288;12.390;2024-01-25T08:31:29;15.48;;;2.25;;
31584;SDS011;18191;51.288;12.390;2024-01-25T08:36:20;27.93;;;2.40;;
31584;SDS011;18191;51.288;12.390;2024-01-25T08:41:10;33.33;;;3.70;;
31584;SDS011;18191;51.288;12.390;2024-01-25T08:46:01;30.93;;;2.90;;
31584;SDS011;18191;51.288;12.390;2024-01-25T08:50:52;34.37;;;2.87;;
31584;SDS011;18191;51.288;12.390;2024-01-25T08:55:44;27.52;;;2.72;;
31584;SDS011;18191;51.288;12.390;2024-01-25T09:00:34;26.10;;;2.87;;
31584;SDS011;18191;51.288;12.390;2024-01-25T09:05:25;25.90;;;3.38;;
31584;SDS011;18191;51.288;12.390;2024-01-25T09:10:18;22.10;;;3.00;;
31584;SDS011;18191;51.288;12.390;2024-01-25T09:15:08;16.03;;;2.80;;
31584;SDS011;18191;51.288;12.390;2024-01-25T09:19:59;12.45;;;2.40;;
31584;SDS011;18191;51.288;12.390;2024-01-25T09:24:50;24.67;;;2.20;;
31584;SDS011;18191;51.288;12.390;2024-01-25T09:29:40;21.05;;;2.83;;
31584;SDS011;18191;51.288;12.390;2024-01-25T09:34:31;23.10;;;4.25;;
31584;SDS011;18191;51.288;12.390;2024-01-25T09:39:22;15.67;;;2.63;;
31584;SDS011;18191;51.288;12.390;2024-01-25T09:44:12;14.88;;;2.75;;
31584;SDS011;18191;51.288;12.390;2024-01-25T09:49:03;12.05;;;2.10;;
31584;SDS011;18191;51.288;12.390;2024-01-25T09:53:54;16.08;;;3.47;;
31584;SDS011;18191;51.288;12.390;2024-01-25T09:58:45;12.88;;;2.47;;
31584;SDS011;18191;51.288;12.390;2024-01-25T10:08:27;24.70;;;2.13;;
31584;SDS011;18191;51.288;12.390;2024-01-25T10:13:17;21.57;;;2.30;;
31584;SDS011;18191;51.288;12.390;2024-01-25T10:23:03;14.35;;;2.00;;
31584;SDS011;18191;51.288;12.390;2024-01-25T10:27:53;6.60;;;1.83;;
31584;SDS011;18191;51.288;12.390;2024-01-25T10:32:43;20.67;;;2.63;;
31584;SDS011;18191;51.288;12.390;2024-01-25T10:37:36;18.52;;;2.65;;
31584;SDS011;18191;51.288;12.390;2024-01-25T10:42:29;19.58;;;1.73;;
31584;SDS011;18191;51.288;12.390;2024-01-25T10:47:20;11.67;;;1.80;;
31584;SDS011;18191;51.288;12.390;2024-01-25T10:52:11;19.52;;;3.38;;
31584;SDS011;18191;51.288;12.390;2024-01-25T10:57:01;17.93;;;2.30;;
31584;SDS011;18191;51.288;12.390;2024-01-25T11:01:53;8.55;;;1.70;;
31584;SDS011;18191;51.288;12.390;2024-01-25T11:06:44;20.92;;;2.38;;
31584;SDS011;18191;51.288;12.390;2024-01-25T11:11:35;13.60;;;2.47;;
31584;SDS011;18191;51.288;12.390;2024-01-25T11:16:30;24.83;;;2.45;;
31584;SDS011;18191;51.288;12.390;2024-01-25T11:21:37;16.65;;;2.65;;
31584;SDS011;18191;51.288;12.390;2024-01-25T11:26:32;23.15;;;2.53;;
31584;SDS011;18191;51.288;12.390;2024-01-25T11:31:22;34.78;;;2.80;;
31584;SDS011;18191;51.288;12.390;2024-01-25T11:36:13;14.35;;;2.05;;
31584;SDS011;18191;51.288;12.390;2024-01-25T11:41:04;14.05;;;1.67;;
31584;SDS011;18191;51.288;12.390;2024-01-25T11:45:54;13.48;;;2.15;;
31584;SDS011;18191;51.288;12.390;2024-01-25T11:50:44;13.57;;;2.30;;
31584;SDS011;18191;51.288;12.390;2024-01-25T11:55:35;13.47;;;1.23;;
31584;SDS011;18191;51.288;12.390;2024-01-25T12:00:25;13.47;;;2.13;;
31584;SDS011;18191;51.288;12.390;2024-01-25T12:05:16;9.33;;;1.50;;
31584;SDS011;18191;51.288;12.390;2024-01-25T12:10:07;15.45;;;2.38;;
31584;SDS011;18191;51.288;12.390;2024-01-25T12:15:00;9.98;;;1.70;;
31584;SDS011;18191;51.288;12.390;2024-01-25T12:19:54;15.55;;;1.88;;
31584;SDS011;18191;51.288;12.390;2024-01-25T12:24:45;22.95;;;1.92;;
31584;SDS011;18191;51.288;12.390;2024-01-25T12:29:36;15.68;;;1.98;;
31584;SDS011;18191;51.288;12.390;2024-01-25T12:34:26;9.65;;;2.33;;
31584;SDS011;18191;51.288;12.390;2024-01-25T12:39:16;14.45;;;1.77;;
31584;SDS011;18191;51.288;12.390;2024-01-25T12:44:07;11.83;;;1.93;;
31584;SDS011;18191;51.288;12.390;2024-01-25T12:48:57;23.10;;;2.22;;
31584;SDS011;18191;51.288;12.390;2024-01-25T12:53:48;9.18;;;1.40;;
31584;SDS011;18191;51.288;12.390;2024-01-25T12:58:39;14.60;;;2.00;;
31584;SDS011;18191;51.288;12.390;2024-01-25T13:03:29;18.70;;;2.25;;
31584;SDS011;18191;51.288;12.390;2024-01-25T13:08:20;20.40;;;1.70;;
31584;SDS011;18191;51.288;12.390;2024-01-25T13:13:10;9.10;;;2.10;;
31584;SDS011;18191;51.288;12.390;2024-01-25T13:18:00;19.42;;;1.73;;
31584;SDS011;18191;51.288;12.390;2024-01-25T13:22:51;18.58;;;2.40;;
31584;SDS011;18191;51.288;12.390;2024-01-25T13:27:41;9.90;;;1.55;;
31584;SDS011;18191;51.288;12.390;2024-01-25T13:32:31;6.57;;;1.48;;
31584;SDS011;18191;51.288;12.390;2024-01-25T13:37:22;19.60;;;1.77;;
31584;SDS011;18191;51.288;12.390;2024-01-25T13:42:12;18.00;;;2.93;;
31584;SDS011;18191;51.288;12.390;2024-01-25T13:47:03;12.30;;;3.00;;
31584;SDS011;18191;51.288;12.390;2024-01-25T13:51:53;13.97;;;1.97;;
31584;SDS011;18191;51.288;12.390;2024-01-25T13:56:44;9.93;;;1.73;;
31584;SDS011;18191;51.288;12.390;2024-01-25T14:01:35;18.83;;;1.90;;
31584;SDS011;18191;51.288;12.390;2024-01-25T14:06:26;6.50;;;1.23;;
31584;SDS011;18191;51.288;12.390;2024-01-25T14:11:17;12.93;;;1.50;;
31584;SDS011;18191;51.288;12.390;2024-01-25T14:16:07;10.43;;;1.45;;
31584;SDS011;18191;51.288;12.390;2024-01-25T14:20:59;17.20;;;1.75;;
31584;SDS011;18191;51.288;12.390;2024-01-25T14:25:49;20.30;;;1.73;;
31584;SDS011;18191;51.288;12.390;2024-01-25T14:30:40;13.15;;;1.88;;
31584;SDS011;18191;51.288;12.390;2024-01-25T14:35:32;16.75;;;2.45;;
31584;SDS011;18191;51.288;12.390;2024-01-25T14:40:24;13.40;;;1.73;;
31584;SDS011;18191;51.288;12.390;2024-01-25T14:45:14;17.33;;;2.35;;
31584;SDS011;18191;51.288;12.390;2024-01-25T14:50:05;12.63;;;1.70;;
31584;SDS011;18191;51.288;12.390;2024-01-25T14:54:56;22.65;;;1.92;;
31584;SDS011;18191;51.288;12.390;2024-01-25T14:59:46;21.83;;;2.20;;
31584;SDS011;18191;51.288;12.390;2024-01-25T15:04:36;12.85;;;1.60;;
31584;SDS011;18191;51.288;12.390;2024-01-25T15:09:26;19.97;;;2.27;;
31584;SDS011;18191;51.288;12.390;2024-01-25T15:14:17;10.20;;;1.67;;
31584;SDS011;18191;51.288;12.390;2024-01-25T15:19:08;22.58;;;2.08;;
31584;SDS011;18191;51.288;12.390;2024-01-25T15:23:59;10.46;;;1.38;;
31584;SDS011;18191;51.288;12.390;2024-01-25T15:28:49;17.02;;;1.70;;
31584;SDS011;18191;51.288;12.390;2024-01-25T15:33:40;17.67;;;2.60;;
31584;SDS011;18191;51.288;12.390;2024-01-25T15:38:30;9.33;;;1.80;;
31584;SDS011;18191;51.288;12.390;2024-01-25T15:43:21;12.97;;;1.63;;
31584;SDS011;18191;51.288;12.390;2024-01-25T15:48:11;17.88;;;1.60;;
31584;SDS011;18191;51.288;12.390;2024-01-25T15:53:01;9.20;;;1.90;;
31584;SDS011;18191;51.288;12.390;2024-01-25T15:57:52;17.70;;;1.73;;
31584;SDS011;18191;51.288;12.390;2024-01-25T16:02:42;23.08;;;2.96;;
31584;SDS011;18191;51.288;12.390;2024-01-25T16:07:32;15.90;;;2.17;;
31584;SDS011;18191;51.288;12.390;2024-01-25T16:12:22;27.23;;;2.37;;
31584;SDS011;18191;51.288;12.390;2024-01-25T16:17:13;25.08;;;3.00;;
31584;SDS011;18191;51.288;12.390;2024-01-25T16:22:05;22.02;;;3.17;;
31584;SDS011;18191;51.288;12.390;2024-01-25T16:26:55;12.20;;;2.23;;
31584;SDS011;18191;51.288;12.390;2024-01-25T16:31:46;13.15;;;2.25;;
31584;SDS011;18191;51.288;12.390;2024-01-25T16:36:38;18.33;;;3.20;;
31584;SDS011;18191;51.288;12.390;2024-01-25T16:41:28;17.08;;;2.60;;
31584;SDS011;18191;51.288;12.390;2024-01-25T16:46:19;20.90;;;2.08;;
31584;SDS011;18191;51.288;12.390;2024-01-25T16:51:09;18.95;;;2.00;;
31584;SDS011;18191;51.288;12.390;2024-01-25T16:55:59;17.92;;;2.10;;
31584;SDS011;18191;51.288;12.390;2024-01-25T17:00:49;22.77;;;2.77;;
31584;SDS011;18191;51.288;12.390;2024-01-25T17:10:31;11.02;;;2.92;;
31584;SDS011;18191;51.288;12.390;2024-01-25T17:15:21;21.10;;;3.40;;
31584;SDS011;18191;51.288;12.390;2024-01-25T17:20:12;27.07;;;5.20;;
31584;SDS011;18191;51.288;12.390;2024-01-25T17:25:02;23.53;;;5.87;;
31584;SDS011;18191;51.288;12.390;2024-01-25T17:29:53;20.93;;;4.13;;
31584;SDS011;18191;51.288;12.390;2024-01-25T17:34:43;19.13;;;2.22;;
31584;SDS011;18191;51.288;12.390;2024-01-25T17:39:33;12.48;;;2.70;;
31584;SDS011;18191;51.288;12.390;2024-01-25T17:44:23;23.87;;;3.07;;
31584;SDS011;18191;51.288;12.390;2024-01-25T17:49:14;18.75;;;2.08;;
31584;SDS011;18191;51.288;12.390;2024-01-25T17:54:04;10.77;;;2.33;;
31584;SDS011;18191;51.288;12.390;2024-01-25T17:58:54;21.92;;;4.05;;
31584;SDS011;18191;51.288;12.390;2024-01-25T18:03:45;30.30;;;3.30;;
31584;SDS011;18191;51.288;12.390;2024-01-25T18:08:36;16.38;;;3.38;;
31584;SDS011;18191;51.288;12.390;2024-01-25T18:13:26;15.25;;;2.35;;
31584;SDS011;18191;51.288;12.390;2024-01-25T18:18:16;24.38;;;2.78;;
31584;SDS011;18191;51.288;12.390;2024-01-25T18:23:06;23.92;;;3.60;;
31584;SDS011;18191;51.288;12.390;2024-01-25T18:27:57;11.77;;;2.85;;
31584;SDS011;18191;51.288;12.390;2024-01-25T18:32:49;15.98;;;3.70;;
31584;SDS011;18191;51.288;12.390;2024-01-25T18:37:39;20.52;;;3.72;;
31584;SDS011;18191;51.288;12.390;2024-01-25T18:42:29;11.98;;;3.50;;
31584;SDS011;18191;51.288;12.390;2024-01-25T18:47:20;33.17;;;3.97;;
31584;SDS011;18191;51.288;12.390;2024-01-25T18:52:13;22.00;;;3.60;;
31584;SDS011;18191;51.288;12.390;2024-01-25T18:57:05;12.93;;;3.63;;
31584;SDS011;18191;51.288;12.390;2024-01-25T19:01:56;23.77;;;4.47;;
31584;SDS011;18191;51.288;12.390;2024-01-25T19:06:49;15.60;;;3.70;;
31584;SDS011;18191;51.288;12.390;2024-01-25T19:11:43;12.40;;;3.78;;
31584;SDS011;18191;51.288;12.390;2024-01-25T19:16:33;17.77;;;3.57;;
31584;SDS011;18191;51.288;12.390;2024-01-25T19:21:24;26.48;;;4.58;;
31584;SDS011;18191;51.288;12.390;2024-01-25T19:26:14;20.46;;;3.92;;
31584;SDS011;18191;51.288;12.390;2024-01-25T19:31:04;13.53;;;3.53;;
31584;SDS011;18191;51.288;12.390;2024-01-25T19:35:56;16.27;;;3.70;;
31584;SDS011;18191;51.288;12.390;2024-01-25T19:40:46;14.68;;;3.97;;
31584;SDS011;18191;51.288;12.390;2024-01-25T19:45:37;16.65;;;3.38;;
31584;SDS011;18191;51.288;12.390;2024-01-25T19:50:27;19.33;;;3.70;;
31584;SDS011;18191;51.288;12.390;2024-01-25T19:55:17;25.84;;;4.34;;
31584;SDS011;18191;51.288;12.390;2024-01-25T20:00:08;15.52;;;3.45;;
31584;SDS011;18191;51.288;12.390;2024-01-25T20:04:59;17.55;;;3.28;;
31584;SDS011;18191;51.288;12.390;2024-01-25T20:09:49;14.47;;;3.90;;
31584;SDS011;18191;51.288;12.390;2024-01-25T20:14:39;10.77;;;3.85;;
31584;SDS011;18191;51.288;12.390;2024-01-25T20:19:31;16.08;;;4.30;;
31584;SDS011;18191;51.288;12.390;2024-01-25T20:24:21;41.42;;;6.03;;
31584;SDS011;18191;51.288;12.390;2024-01-25T20:29:11;26.23;;;5.97;;
31584;SDS011;18191;51.288;12.390;2024-01-25T20:34:02;24.27;;;5.57;;
31584;SDS011;18191;51.288;12.390;2024-01-25T20:38:53;16.33;;;5.55;;
31584;SDS011;18191;51.288;12.390;2024-01-25T20:43:43;39.13;;;7.53;;
31584;SDS011;18191;51.288;12.390;2024-01-25T20:48:34;38.85;;;6.68;;
31584;SDS011;18191;51.288;12.390;2024-01-25T20:58:15;24.20;;;6.72;;
31584;SDS011;18191;51.288;12.390;2024-01-25T21:03:06;41.03;;;7.25;;
31584;SDS011;18191;51.288;12.390;2024-01-25T21:07:57;19.85;;;4.93;;
31584;SDS011;18191;51.288;12.390;2024-01-25T21:12:47;22.60;;;5.63;;
31584;SDS011;18191;51.288;12.390;2024-01-25T21:17:38;18.17;;;4.63;;
31584;SDS011;18191;51.288;12.390;2024-01-25T21:22:28;25.10;;;5.10;;
31584;SDS011;18191;51.288;12.390;2024-01-25T21:27:19;20.67;;;4.70;;
31584;SDS011;18191;51.288;12.390;2024-01-25T21:32:09;36.30;;;5.67;;
31584;SDS011;18191;51.288;12.390;2024-01-25T21:36:59;30.37;;;6.23;;
31584;SDS011;18191;51.288;12.390;2024-01-25T21:41:49;36.35;;;5.15;;
31584;SDS011;18191;51.288;12.390;2024-01-25T21:46:40;36.43;;;6.77;;
31584;SDS011;18191;51.288;12.390;2024-01-25T21:51:30;20.57;;;5.20;;
31584;SDS011;18191;51.288;12.390;2024-01-25T21:56:21;30.57;;;6.23;;
31584;SDS011;18191;51.288;12.390;2024-01-25T22:01:11;16.10;;;4.63;;
31584;SDS011;18191;51.288;12.390;2024-01-25T22:06:01;31.38;;;4.97;;
31584;SDS011;18191;51.288;12.390;2024-01-25T22:10:52;29.37;;;4.97;;
31584;SDS011;18191;51.288;12.390;2024-01-25T22:15:42;24.83;;;5.72;;
31584;SDS011;18191;51.288;12.390;2024-01-25T22:20:32;21.67;;;5.53;;
31584;SDS011;18191;51.288;12.390;2024-01-25T22:25:23;24.05;;;5.70;;
31584;SDS011;18191;51.288;12.390;2024-01-25T22:30:13;19.17;;;4.37;;
31584;SDS011;18191;51.288;12.390;2024-01-25T22:35:04;19.03;;;4.83;;
31584;SDS011;18191;51.288;12.390;2024-01-25T22:39:54;31.50;;;5.00;;
31584;SDS011;18191;51.288;12.390;2024-01-25T22:44:44;24.57;;;5.20;;
31584;SDS011;18191;51.288;12.390;2024-01-25T22:49:35;11.73;;;3.95;;
31584;SDS011;18191;51.288;12.390;2024-01-25T22:54:25;34.07;;;4.60;;
31584;SDS011;18191;51.288;12.390;2024-01-25T22:59:15;24.90;;;5.03;;
31584;SDS011;18191;51.288;12.390;2024-01-25T23:04:06;13.87;;;3.93;;
31584;SDS011;18191;51.288;12.390;2024-01-25T23:08:56;23.93;;;4.90;;
31584;SDS011;18191;51.288;12.390;2024-01-25T23:13:46;26.97;;;4.27;;
31584;SDS011;18191;51.288;12.390;2024-01-25T23:18:37;24.30;;;4.57;;
31584;SDS011;18191;51.288;12.390;2024-01-25T23:23:27;19.00;;;5.10;;
31584;SDS011;18191;51.288;12.390;2024-01-25T23:28:18;18.13;;;3.33;;
31584;SDS011;18191;51.288;12.390;2024-01-25T23:33:09;21.92;;;4.18;;
31584;SDS011;18191;51.288;12.390;2024-01-25T23:37:59;15.82;;;3.65;;
31584;SDS011;18191;51.288;12.390;2024-01-25T23:42:50;25.63;;;3.93;;
31584;SDS011;18191;51.288;12.390;2024-01-25T23:47:41;18.85;;;2.90;;
31584;SDS011;18191;51.288;12.390;2024-01-25T23:52:31;19.77;;;4.77;;
31584;SDS011;18191;51.288;12.390;2024-01-25T23:57:21;36.10;;;5.53;;
